sensor_id;sensor_type;location;lat;lon;timestamp;pressure;altitude;pressure_sealevel;temperature;humidity
69318;BME280;56457;52.190;4.440;2022-11-15T00:00:04;100888.50;;;7.27;100.00
69318;BME280;56457;52.190;4.440;2022-11-15T00:01:07;100892.84;;;7.28;100.00
69318;BME280;56457;52.190;4.440;2022-11-15T00:02:08;100881.56;;;7.27;100.00
69318;BME280;56457;52.190;4.440;2022-11-15T00:03:08;100882.38;;;7.26;100.00
69318;BME280;56457;52.190;4.440;2022-11-15T00:04:09;100878.91;;;7.23;100.00
69318;BME280;56457;52.190;4.440;2022-11-15T00:05:10;100878.00;;;7.19;100.00
69318;BME280;56457;52.190;4.440;2022-11-15T00:06:10;100884.13;;;7.26;100.00
69318;BME280;56457;52.190;4.440;2022-11-15T00:07:10;100885.88;;;7.24;100.00
69318;BME280;56457;52.190;4.440;2022-11-15T00:08:11;100880.69;;;7.27;100.00
69318;BME280;56457;52.190;4.440;2022-11-15T00:09:11;100881.50;;;7.24;100.00
69318;BME280;56457;52.190;4.440;2022-11-15T00:10:11;100885.00;;;7.25;100.00
69318;BME280;56457;52.190;4.440;2022-11-15T00:11:12;100886.72;;;7.23;100.00
69318;BME280;56457;52.190;4.440;2022-11-15T00:12:12;100881.50;;;7.23;100.00
69318;BME280;56457;52.190;4.440;2022-11-15T00:13:13;100884.13;;;7.23;100.00
69318;BME280;56457;52.190;4.440;2022-11-15T00:14:13;100886.78;;;7.29;100.00
69318;BME280;56457;52.190;4.440;2022-11-15T00:15:13;100883.28;;;7.27;100.00
69318;BME280;56457;52.190;4.440;2022-11-15T00:16:14;100883.28;;;7.28;100.00
69318;BME280;56457;52.190;4.440;2022-11-15T00:17:14;100884.16;;;7.27;100.00
69318;BME280;56457;52.190;4.440;2022-11-15T00:31:33;100884.16;;;7.31;100.00
69318;BME280;56457;52.190;4.440;2022-11-15T00:32:34;100877.22;;;7.33;100.00
69318;BME280;56457;52.190;4.440;2022-11-15T00:33:34;100871.13;;;7.31;100.00
69318;BME280;56457;52.190;4.440;2022-11-15T00:34:34;100868.50;;;7.32;100.00
69318;BME280;56457;52.190;4.440;2022-11-15T00:35:34;100874.59;;;7.28;100.00
69318;BME280;56457;52.190;4.440;2022-11-15T00:36:35;100864.16;;;7.33;100.00
69318;BME280;56457;52.190;4.440;2022-11-15T00:37:35;100871.97;;;7.31;100.00
69318;BME280;56457;52.190;4.440;2022-11-15T00:38:36;100874.59;;;7.31;100.00
69318;BME280;56457;52.190;4.440;2022-11-15T00:39:37;100885.03;;;7.33;100.00
69318;BME280;56457;52.190;4.440;2022-11-15T00:40:37;100883.28;;;7.32;100.00
69318;BME280;56457;52.190;4.440;2022-11-15T00:41:37;100869.38;;;7.29;100.00
69318;BME280;56457;52.190;4.440;2022-11-15T00:42:38;100870.28;;;7.35;100.00
69318;BME280;56457;52.190;4.440;2022-11-15T00:43:38;100869.41;;;7.39;100.00
69318;BME280;56457;52.190;4.440;2022-11-15T00:44:39;100865.94;;;7.37;100.00
69318;BME280;56457;52.190;4.440;2022-11-15T00:45:40;100866.75;;;7.31;100.00
69318;BME280;56457;52.190;4.440;2022-11-15T00:46:40;100864.19;;;7.36;100.00
69318;BME280;56457;52.190;4.440;2022-11-15T00:47:40;100861.56;;;7.34;100.00
69318;BME280;56457;52.190;4.440;2022-11-15T00:48:43;100862.41;;;7.32;100.00
69318;BME280;56457;52.190;4.440;2022-11-15T00:49:43;100865.91;;;7.27;100.00
69318;BME280;56457;52.190;4.440;2022-11-15T00:50:44;100864.16;;;7.33;100.00
69318;BME280;56457;52.190;4.440;2022-11-15T00:51:44;100853.72;;;7.31;100.00
69318;BME280;56457;52.190;4.440;2022-11-15T00:52:44;100851.13;;;7.34;100.00
69318;BME280;56457;52.190;4.440;2022-11-15T00:53:45;100857.19;;;7.30;100.00
69318;BME280;56457;52.190;4.440;2022-11-15T00:54:45;100846.78;;;7.33;100.00
69318;BME280;56457;52.190;4.440;2022-11-15T00:55:46;100849.41;;;7.36;100.00
69318;BME280;56457;52.190;4.440;2022-11-15T00:56:46;100861.56;;;7.39;100.00
69318;BME280;56457;52.190;4.440;2022-11-15T00:57:46;100858.13;;;7.41;100.00
69318;BME280;56457;52.190;4.440;2022-11-15T00:58:46;100860.75;;;7.40;100.00
69318;BME280;56457;52.190;4.440;2022-11-15T00:59:47;100858.13;;;7.41;100.00
69318;BME280;56457;52.190;4.440;2022-11-15T01:00:47;100860.75;;;7.41;100.00
69318;BME280;56457;52.190;4.440;2022-11-15T01:01:47;100854.66;;;7.39;100.00
69318;BME280;56457;52.190;4.440;2022-11-15T01:02:48;100856.41;;;7.42;100.00
69318;BME280;56457;52.190;4.440;2022-11-15T01:03:48;100857.25;;;7.44;100.00
69318;BME280;56457;52.190;4.440;2022-11-15T01:04:48;100850.31;;;7.44;100.00
69318;BME280;56457;52.190;4.440;2022-11-15T01:05:49;100853.78;;;7.42;100.00
69318;BME280;56457;52.190;4.440;2022-11-15T01:06:49;100857.25;;;7.41;100.00
69318;BME280;56457;52.190;4.440;2022-11-15T01:07:52;100847.72;;;7.47;100.00
69318;BME280;56457;52.190;4.440;2022-11-15T01:08:53;100847.69;;;7.44;100.00
69318;BME280;56457;52.190;4.440;2022-11-15T01:09:53;100852.94;;;7.47;100.00
69318;BME280;56457;52.190;4.440;2022-11-15T01:10:54;100845.97;;;7.48;100.00
69318;BME280;56457;52.190;4.440;2022-11-15T01:11:54;100843.38;;;7.46;100.00
69318;BME280;56457;52.190;4.440;2022-11-15T01:12:54;100849.47;;;7.48;100.00
69318;BME280;56457;52.190;4.440;2022-11-15T01:13:55;100848.59;;;7.51;100.00
69318;BME280;56457;52.190;4.440;2022-11-15T01:14:55;100840.75;;;7.49;100.00
69318;BME280;56457;52.190;4.440;2022-11-15T01:15:56;100848.59;;;7.46;100.00
69318;BME280;56457;52.190;4.440;2022-11-15T01:16:56;100844.25;;;7.45;100.00
69318;BME280;56457;52.190;4.440;2022-11-15T01:17:56;100839.06;;;7.53;100.00
69318;BME280;56457;52.190;4.440;2022-11-15T01:18:57;100839.06;;;7.57;100.00
69318;BME280;56457;52.190;4.440;2022-11-15T01:19:57;100835.56;;;7.55;100.00
69318;BME280;56457;52.190;4.440;2022-11-15T01:20:57;100832.97;;;7.55;100.00
69318;BME280;56457;52.190;4.440;2022-11-15T01:21:58;100838.22;;;7.60;100.00
69318;BME280;56457;52.190;4.440;2022-11-15T01:22:58;100830.34;;;7.54;100.00
69318;BME280;56457;52.190;4.440;2022-11-15T01:23:58;100834.72;;;7.58;100.00
69318;BME280;56457;52.190;4.440;2022-11-15T01:24:58;100832.97;;;7.54;100.00
69318;BME280;56457;52.190;4.440;2022-11-15T01:25:59;100827.72;;;7.57;100.00
69318;BME280;56457;52.190;4.440;2022-11-15T01:27:00;100829.50;;;7.60;100.00
69318;BME280;56457;52.190;4.440;2022-11-15T01:28:00;100821.69;;;7.60;100.00
69318;BME280;56457;52.190;4.440;2022-11-15T01:29:00;100823.41;;;7.59;100.00
69318;BME280;56457;52.190;4.440;2022-11-15T01:30:01;100824.28;;;7.60;100.00
69318;BME280;56457;52.190;4.440;2022-11-15T01:31:01;100822.53;;;7.63;100.00
69318;BME280;56457;52.190;4.440;2022-11-15T01:32:02;100827.78;;;7.65;100.00
69318;BME280;56457;52.190;4.440;2022-11-15T01:33:02;100829.50;;;7.63;100.00
69318;BME280;56457;52.190;4.440;2022-11-15T01:34:03;100817.31;;;7.62;100.00
69318;BME280;56457;52.190;4.440;2022-11-15T01:35:03;100820.81;;;7.61;100.00
69318;BME280;56457;52.190;4.440;2022-11-15T01:36:04;100820.84;;;7.71;100.00
69318;BME280;56457;52.190;4.440;2022-11-15T01:37:05;100820.81;;;7.67;100.00
69318;BME280;56457;52.190;4.440;2022-11-15T01:38:05;100817.34;;;7.65;100.00
69318;BME280;56457;52.190;4.440;2022-11-15T01:39:06;100816.47;;;7.66;100.00
69318;BME280;56457;52.190;4.440;2022-11-15T01:40:06;100819.09;;;7.69;100.00
69318;BME280;56457;52.190;4.440;2022-11-15T01:41:12;100809.53;;;7.72;100.00
69318;BME280;56457;52.190;4.440;2022-11-15T01:42:13;100819.13;;;7.78;100.00
69318;BME280;56457;52.190;4.440;2022-11-15T01:43:27;100808.66;;;7.73;100.00
69318;BME280;56457;52.190;4.440;2022-11-15T01:45:34;100807.78;;;7.76;100.00
69318;BME280;56457;52.190;4.440;2022-11-15T01:46:35;100799.97;;;7.73;100.00
69318;BME280;56457;52.190;4.440;2022-11-15T01:47:39;100804.34;;;7.77;100.00
69318;BME280;56457;52.190;4.440;2022-11-15T01:48:40;100803.47;;;7.78;100.00
69318;BME280;56457;52.190;4.440;2022-11-15T01:49:45;100806.94;;;7.78;100.00
69318;BME280;56457;52.190;4.440;2022-11-15T01:50:47;100806.06;;;7.79;100.00
69318;BME280;56457;52.190;4.440;2022-11-15T01:51:48;100805.19;;;7.82;100.00
69318;BME280;56457;52.190;4.440;2022-11-15T01:52:49;100805.19;;;7.82;100.00
69318;BME280;56457;52.190;4.440;2022-11-15T01:53:50;100797.38;;;7.79;100.00
69318;BME280;56457;52.190;4.440;2022-11-15T01:54:53;100808.69;;;7.84;100.00
69318;BME280;56457;52.190;4.440;2022-11-15T01:55:55;100804.34;;;7.83;100.00
69318;BME280;56457;52.190;4.440;2022-11-15T01:56:57;100805.22;;;7.83;100.00
69318;BME280;56457;52.190;4.440;2022-11-15T01:57:59;100805.22;;;7.87;100.00
69318;BME280;56457;52.190;4.440;2022-11-15T01:59:02;100793.91;;;7.88;100.00
69318;BME280;56457;52.190;4.440;2022-11-15T02:00:04;100793.03;;;7.90;100.00
69318;BME280;56457;52.190;4.440;2022-11-15T02:01:05;100796.53;;;7.89;100.00
69318;BME280;56457;52.190;4.440;2022-11-15T02:02:05;100798.25;;;7.95;100.00
69318;BME280;56457;52.190;4.440;2022-11-15T02:03:06;100791.31;;;7.92;100.00
69318;BME280;56457;52.190;4.440;2022-11-15T02:04:08;100792.16;;;7.94;100.00
69318;BME280;56457;52.190;4.440;2022-11-15T02:05:11;100786.09;;;7.95;100.00
69318;BME280;56457;52.190;4.440;2022-11-15T02:06:11;100787.84;;;7.96;100.00
69318;BME280;56457;52.190;4.440;2022-11-15T02:07:13;100787.84;;;7.98;100.00
69318;BME280;56457;52.190;4.440;2022-11-15T02:08:14;100779.13;;;8.00;100.00
69318;BME280;56457;52.190;4.440;2022-11-15T02:09:19;100781.72;;;8.00;100.00
69318;BME280;56457;52.190;4.440;2022-11-15T02:10:21;100781.75;;;7.96;100.00
69318;BME280;56457;52.190;4.440;2022-11-15T02:11:21;100782.59;;;8.01;100.00
69318;BME280;56457;52.190;4.440;2022-11-15T02:12:22;100778.25;;;8.00;100.00
69318;BME280;56457;52.190;4.440;2022-11-15T02:13:23;100779.16;;;8.02;100.00
69318;BME280;56457;52.190;4.440;2022-11-15T02:14:23;100781.75;;;8.05;100.00
69318;BME280;56457;52.190;4.440;2022-11-15T02:15:27;100769.56;;;8.08;100.00
69318;BME280;56457;52.190;4.440;2022-11-15T02:18:48;100764.34;;;8.02;100.00
69318;BME280;56457;52.190;4.440;2022-11-15T02:21:11;100764.31;;;7.99;100.00
69318;BME280;56457;52.190;4.440;2022-11-15T02:23:48;100765.19;;;8.12;100.00
69318;BME280;56457;52.190;4.440;2022-11-15T02:30:53;100758.25;;;8.20;100.00
69318;BME280;56457;52.190;4.440;2022-11-15T02:32:03;100762.59;;;8.24;100.00
69318;BME280;56457;52.190;4.440;2022-11-15T02:34:29;100756.50;;;8.22;100.00
69318;BME280;56457;52.190;4.440;2022-11-15T02:35:39;100757.38;;;8.27;100.00
69318;BME280;56457;52.190;4.440;2022-11-15T02:36:44;100756.50;;;8.25;100.00
69318;BME280;56457;52.190;4.440;2022-11-15T02:37:53;100753.91;;;8.27;100.00
69318;BME280;56457;52.190;4.440;2022-11-15T02:39:17;100753.91;;;8.28;100.00
69318;BME280;56457;52.190;4.440;2022-11-15T02:41:23;100751.28;;;8.30;100.00
69318;BME280;56457;52.190;4.440;2022-11-15T02:42:55;100751.31;;;8.36;100.00
69318;BME280;56457;52.190;4.440;2022-11-15T02:44:23;100750.44;;;8.35;100.00
69318;BME280;56457;52.190;4.440;2022-11-15T02:45:27;100753.91;;;8.38;100.00
69318;BME280;56457;52.190;4.440;2022-11-15T02:47:50;100753.94;;;8.41;100.00
69318;BME280;56457;52.190;4.440;2022-11-15T02:48:52;100748.72;;;8.39;100.00
69318;BME280;56457;52.190;4.440;2022-11-15T02:49:53;100745.22;;;8.40;100.00
69318;BME280;56457;52.190;4.440;2022-11-15T02:50:54;100752.16;;;8.44;100.00
69318;BME280;56457;52.190;4.440;2022-11-15T02:51:55;100753.06;;;8.46;100.00
69318;BME280;56457;52.190;4.440;2022-11-15T02:52:55;100747.81;;;8.49;100.00
69318;BME280;56457;52.190;4.440;2022-11-15T02:53:56;100741.72;;;8.49;100.00
69318;BME280;56457;52.190;4.440;2022-11-15T02:54:57;100747.81;;;8.55;100.00
69318;BME280;56457;52.190;4.440;2022-11-15T02:55:58;100746.94;;;8.56;100.00
69318;BME280;56457;52.190;4.440;2022-11-15T02:57:10;100749.56;;;8.58;100.00
69318;BME280;56457;52.190;4.440;2022-11-15T02:58:56;100750.44;;;8.58;100.00
69318;BME280;56457;52.190;4.440;2022-11-15T03:00:41;100746.91;;;8.62;100.00
69318;BME280;56457;52.190;4.440;2022-11-15T03:02:03;100748.69;;;8.63;100.00
69318;BME280;56457;52.190;4.440;2022-11-15T03:06:00;100739.09;;;8.66;100.00
69318;BME280;56457;52.190;4.440;2022-11-15T03:08:43;100738.19;;;8.73;100.00
69318;BME280;56457;52.190;4.440;2022-11-15T03:10:48;100740.84;;;8.70;100.00
69318;BME280;56457;52.190;4.440;2022-11-15T03:11:52;100733.00;;;8.70;100.00
69318;BME280;56457;52.190;4.440;2022-11-15T03:12:57;100736.44;;;8.73;100.00
69318;BME280;56457;52.190;4.440;2022-11-15T03:14:07;100741.69;;;8.75;100.00
69318;BME280;56457;52.190;4.440;2022-11-15T03:16:10;100741.69;;;8.78;100.00
69318;BME280;56457;52.190;4.440;2022-11-15T03:18:19;100737.31;;;8.80;100.00
69318;BME280;56457;52.190;4.440;2022-11-15T03:20:31;100732.94;;;8.82;100.00
69318;BME280;56457;52.190;4.440;2022-11-15T03:21:33;100732.94;;;8.82;100.00
69318;BME280;56457;52.190;4.440;2022-11-15T03:22:38;100735.53;;;8.86;100.00
69318;BME280;56457;52.190;4.440;2022-11-15T03:23:40;100723.34;;;8.87;100.00
69318;BME280;56457;52.190;4.440;2022-11-15T03:24:40;100724.22;;;8.89;100.00
69318;BME280;56457;52.190;4.440;2022-11-15T03:25:45;100728.56;;;8.92;100.00
69318;BME280;56457;52.190;4.440;2022-11-15T03:26:46;100719.84;;;8.93;100.00
69318;BME280;56457;52.190;4.440;2022-11-15T03:27:49;100725.06;;;8.93;100.00
69318;BME280;56457;52.190;4.440;2022-11-15T03:28:52;100723.31;;;8.96;100.00
69318;BME280;56457;52.190;4.440;2022-11-15T03:29:55;100718.94;;;9.00;100.00
69318;BME280;56457;52.190;4.440;2022-11-15T03:30:58;100724.19;;;8.98;100.00
69318;BME280;56457;52.190;4.440;2022-11-15T03:32:00;100725.03;;;8.99;100.00
69318;BME280;56457;52.190;4.440;2022-11-15T03:33:02;100726.78;;;8.98;100.00
69318;BME280;56457;52.190;4.440;2022-11-15T03:34:04;100732.91;;;8.97;100.00
69318;BME280;56457;52.190;4.440;2022-11-15T03:35:11;100732.03;;;9.01;100.00
69318;BME280;56457;52.190;4.440;2022-11-15T03:36:12;100736.38;;;9.04;100.00
69318;BME280;56457;52.190;4.440;2022-11-15T03:37:13;100730.25;;;9.05;100.00
69318;BME280;56457;52.190;4.440;2022-11-15T03:38:16;100731.16;;;9.07;100.00
69318;BME280;56457;52.190;4.440;2022-11-15T03:39:19;100732.88;;;9.06;100.00
69318;BME280;56457;52.190;4.440;2022-11-15T03:40:22;100734.63;;;9.07;100.00
69318;BME280;56457;52.190;4.440;2022-11-15T03:41:28;100731.13;;;9.08;100.00
69318;BME280;56457;52.190;4.440;2022-11-15T03:42:32;100730.25;;;9.14;100.00
69318;BME280;56457;52.190;4.440;2022-11-15T03:43:39;100729.38;;;9.13;100.00
69318;BME280;56457;52.190;4.440;2022-11-15T03:45:47;100738.06;;;9.20;100.00
69318;BME280;56457;52.190;4.440;2022-11-15T03:46:54;100726.69;;;9.24;100.00
69318;BME280;56457;52.190;4.440;2022-11-15T04:01:59;100721.34;;;9.49;100.00
69318;BME280;56457;52.190;4.440;2022-11-15T04:02:59;100723.09;;;9.53;100.00
69318;BME280;56457;52.190;4.440;2022-11-15T04:04:00;100718.72;;;9.52;100.00
69318;BME280;56457;52.190;4.440;2022-11-15T04:05:00;100716.94;;;9.55;100.00
69318;BME280;56457;52.190;4.440;2022-11-15T04:06:00;100707.31;;;9.62;100.00
69318;BME280;56457;52.190;4.440;2022-11-15T04:07:00;100710.78;;;9.65;100.00
69318;BME280;56457;52.190;4.440;2022-11-15T04:08:01;100713.41;;;9.65;100.00
69318;BME280;56457;52.190;4.440;2022-11-15T04:09:01;100705.53;;;9.70;100.00
69318;BME280;56457;52.190;4.440;2022-11-15T04:10:02;100706.41;;;9.70;100.00
69318;BME280;56457;52.190;4.440;2022-11-15T04:11:02;100709.00;;;9.70;100.00
69318;BME280;56457;52.190;4.440;2022-11-15T04:12:03;100708.09;;;9.75;100.00
69318;BME280;56457;52.190;4.440;2022-11-15T04:13:03;100707.22;;;9.77;100.00
69318;BME280;56457;52.190;4.440;2022-11-15T04:14:03;100715.06;;;9.79;100.00
69318;BME280;56457;52.190;4.440;2022-11-15T04:15:07;100708.97;;;9.78;100.00
69318;BME280;56457;52.190;4.440;2022-11-15T04:16:08;100704.56;;;9.80;100.00
69318;BME280;56457;52.190;4.440;2022-11-15T04:17:08;100714.16;;;9.81;100.00
69318;BME280;56457;52.190;4.440;2022-11-15T04:18:09;100715.91;;;9.81;100.00
69318;BME280;56457;52.190;4.440;2022-11-15T04:19:09;100710.69;;;9.82;100.00
69318;BME280;56457;52.190;4.440;2022-11-15T04:20:28;100709.75;;;9.89;100.00
69318;BME280;56457;52.190;4.440;2022-11-15T04:21:47;100711.50;;;9.89;100.00
69318;BME280;56457;52.190;4.440;2022-11-15T04:23:15;100712.38;;;9.89;100.00
69318;BME280;56457;52.190;4.440;2022-11-15T04:24:35;100710.59;;;9.93;100.00
69318;BME280;56457;52.190;4.440;2022-11-15T04:25:35;100705.38;;;9.94;100.00
69318;BME280;56457;52.190;4.440;2022-11-15T04:26:35;100706.22;;;9.95;100.00
69318;BME280;56457;52.190;4.440;2022-11-15T04:27:36;100714.09;;;9.95;100.00
69318;BME280;56457;52.190;4.440;2022-11-15T04:28:36;100705.38;;;9.94;100.00
69318;BME280;56457;52.190;4.440;2022-11-15T04:29:56;100707.09;;;9.95;100.00
69318;BME280;56457;52.190;4.440;2022-11-15T04:30:57;100713.16;;;9.99;100.00
69318;BME280;56457;52.190;4.440;2022-11-15T04:31:57;100705.31;;;10.01;100.00
69318;BME280;56457;52.190;4.440;2022-11-15T04:32:57;100710.50;;;10.05;100.00
69318;BME280;56457;52.190;4.440;2022-11-15T04:33:58;100706.09;;;10.10;100.00
69318;BME280;56457;52.190;4.440;2022-11-15T04:34:58;100708.75;;;10.07;100.00
69318;BME280;56457;52.190;4.440;2022-11-15T04:35:59;100710.50;;;10.08;100.00
69318;BME280;56457;52.190;4.440;2022-11-15T04:37:17;100704.38;;;10.09;100.00
69318;BME280;56457;52.190;4.440;2022-11-15T04:38:18;100707.00;;;10.08;100.00
69318;BME280;56457;52.190;4.440;2022-11-15T04:39:18;100705.22;;;10.10;100.00
69318;BME280;56457;52.190;4.440;2022-11-15T04:40:18;100713.13;;;10.08;100.00
69318;BME280;56457;52.190;4.440;2022-11-15T04:41:18;100714.81;;;10.11;100.00
69318;BME280;56457;52.190;4.440;2022-11-15T04:42:19;100720.03;;;10.15;100.00
69318;BME280;56457;52.190;4.440;2022-11-15T04:43:19;100713.94;;;10.13;100.00
69318;BME280;56457;52.190;4.440;2022-11-15T04:44:19;100716.56;;;10.13;100.00
69318;BME280;56457;52.190;4.440;2022-11-15T04:45:19;100714.78;;;10.17;100.00
69318;BME280;56457;52.190;4.440;2022-11-15T04:46:20;100710.41;;;10.17;100.00
69318;BME280;56457;52.190;4.440;2022-11-15T04:47:20;100703.41;;;10.19;100.00
69318;BME280;56457;52.190;4.440;2022-11-15T04:48:20;100706.88;;;10.21;100.00
69318;BME280;56457;52.190;4.440;2022-11-15T04:49:21;100703.41;;;10.26;100.00
69318;BME280;56457;52.190;4.440;2022-11-15T04:50:21;100703.38;;;10.27;100.00
69318;BME280;56457;52.190;4.440;2022-11-15T04:51:21;100701.63;;;10.24;100.00
69318;BME280;56457;52.190;4.440;2022-11-15T04:52:22;100706.84;;;10.29;100.00
69318;BME280;56457;52.190;4.440;2022-11-15T04:53:22;100694.63;;;10.31;100.00
69318;BME280;56457;52.190;4.440;2022-11-15T04:54:22;100710.31;;;10.34;100.00
69318;BME280;56457;52.190;4.440;2022-11-15T04:55:22;100703.31;;;10.33;100.00
69318;BME280;56457;52.190;4.440;2022-11-15T04:56:23;100698.03;;;10.36;100.00
69318;BME280;56457;52.190;4.440;2022-11-15T04:57:23;100704.19;;;10.34;100.00
69318;BME280;56457;52.190;4.440;2022-11-15T04:58:23;100702.41;;;10.37;100.00
69318;BME280;56457;52.190;4.440;2022-11-15T04:59:24;100703.25;;;10.41;100.00
69318;BME280;56457;52.190;4.440;2022-11-15T05:00:25;100701.50;;;10.40;100.00
69318;BME280;56457;52.190;4.440;2022-11-15T05:01:26;100698.84;;;10.43;100.00
69318;BME280;56457;52.190;4.440;2022-11-15T05:02:26;100701.47;;;10.44;100.00
69318;BME280;56457;52.190;4.440;2022-11-15T05:03:46;100709.31;;;10.47;100.00
69318;BME280;56457;52.190;4.440;2022-11-15T05:05:06;100706.66;;;10.49;100.00
69318;BME280;56457;52.190;4.440;2022-11-15T05:06:06;100706.66;;;10.52;100.00
69318;BME280;56457;52.190;4.440;2022-11-15T05:07:07;100709.22;;;10.58;100.00
69318;BME280;56457;52.190;4.440;2022-11-15T05:08:07;100700.41;;;10.61;100.00
69318;BME280;56457;52.190;4.440;2022-11-15T05:09:07;100703.91;;;10.61;100.00
69318;BME280;56457;52.190;4.440;2022-11-15T05:10:08;100705.69;;;10.59;100.00
69318;BME280;56457;52.190;4.440;2022-11-15T05:11:08;100705.69;;;10.59;100.00
69318;BME280;56457;52.190;4.440;2022-11-15T05:12:08;100715.28;;;10.62;100.00
69318;BME280;56457;52.190;4.440;2022-11-15T05:13:09;100710.91;;;10.64;100.00
69318;BME280;56457;52.190;4.440;2022-11-15T05:14:09;100710.91;;;10.64;100.00
69318;BME280;56457;52.190;4.440;2022-11-15T05:15:09;100703.88;;;10.66;100.00
69318;BME280;56457;52.190;4.440;2022-11-15T05:16:09;100709.13;;;10.66;100.00
69318;BME280;56457;52.190;4.440;2022-11-15T05:17:10;100709.97;;;10.69;100.00
69318;BME280;56457;52.190;4.440;2022-11-15T05:18:10;100703.88;;;10.69;100.00
69318;BME280;56457;52.190;4.440;2022-11-15T05:19:10;100705.59;;;10.67;100.00
69318;BME280;56457;52.190;4.440;2022-11-15T05:20:11;100705.63;;;10.68;100.00
69318;BME280;56457;52.190;4.440;2022-11-15T05:21:12;100699.47;;;10.71;100.00
69318;BME280;56457;52.190;4.440;2022-11-15T05:22:13;100703.78;;;10.73;100.00
69318;BME280;56457;52.190;4.440;2022-11-15T05:23:13;100705.56;;;10.74;100.00
69318;BME280;56457;52.190;4.440;2022-11-15T05:24:13;100701.16;;;10.75;100.00
69318;BME280;56457;52.190;4.440;2022-11-15T05:25:14;100703.78;;;10.73;100.00
69318;BME280;56457;52.190;4.440;2022-11-15T05:26:15;100707.28;;;10.74;100.00
69318;BME280;56457;52.190;4.440;2022-11-15T05:27:16;100705.53;;;10.73;100.00
69318;BME280;56457;52.190;4.440;2022-11-15T05:28:16;100717.78;;;10.74;100.00
69318;BME280;56457;52.190;4.440;2022-11-15T05:29:16;100709.94;;;10.72;100.00
69318;BME280;56457;52.190;4.440;2022-11-15T05:30:17;100709.09;;;10.67;100.00
69318;BME280;56457;52.190;4.440;2022-11-15T05:31:17;100712.63;;;10.66;100.00
69318;BME280;56457;52.190;4.440;2022-11-15T05:32:17;100720.44;;;10.71;100.00
69318;BME280;56457;52.190;4.440;2022-11-15T05:33:18;100721.31;;;10.71;100.00
69318;BME280;56457;52.190;4.440;2022-11-15T05:34:18;100717.78;;;10.75;100.00
69318;BME280;56457;52.190;4.440;2022-11-15T05:35:25;100714.34;;;10.67;100.00
69318;BME280;56457;52.190;4.440;2022-11-15T05:36:31;100715.19;;;10.72;100.00
69318;BME280;56457;52.190;4.440;2022-11-15T05:37:33;100717.78;;;10.75;100.00
69318;BME280;56457;52.190;4.440;2022-11-15T05:38:33;100722.19;;;10.72;100.00
69318;BME280;56457;52.190;4.440;2022-11-15T05:39:34;100714.34;;;10.70;100.00
69318;BME280;56457;52.190;4.440;2022-11-15T05:40:34;100723.09;;;10.69;100.00
69318;BME280;56457;52.190;4.440;2022-11-15T05:41:41;100728.34;;;10.66;100.00
69318;BME280;56457;52.190;4.440;2022-11-15T05:42:44;100720.44;;;10.71;100.00
69318;BME280;56457;52.190;4.440;2022-11-15T05:43:44;100723.09;;;10.69;100.00
69318;BME280;56457;52.190;4.440;2022-11-15T05:44:46;100721.34;;;10.68;100.00
69318;BME280;56457;52.190;4.440;2022-11-15T05:45:48;100722.22;;;10.67;100.00
69318;BME280;56457;52.190;4.440;2022-11-15T05:46:48;100726.53;;;10.73;100.00
69318;BME280;56457;52.190;4.440;2022-11-15T05:47:50;100722.22;;;10.67;100.00
69318;BME280;56457;52.190;4.440;2022-11-15T05:48:51;100726.53;;;10.73;100.00
69318;BME280;56457;52.190;4.440;2022-11-15T05:49:52;100723.03;;;10.75;100.00
69318;BME280;56457;52.190;4.440;2022-11-15T05:50:53;100729.22;;;10.70;100.00
69318;BME280;56457;52.190;4.440;2022-11-15T05:51:53;100727.47;;;10.67;100.00
69318;BME280;56457;52.190;4.440;2022-11-15T05:52:54;100731.88;;;10.65;100.00
69318;BME280;56457;52.190;4.440;2022-11-15T05:53:55;100720.50;;;10.65;100.00
69318;BME280;56457;52.190;4.440;2022-11-15T05:54:56;100723.09;;;10.66;100.00
69318;BME280;56457;52.190;4.440;2022-11-15T05:55:57;100723.97;;;10.68;100.00
69318;BME280;56457;52.190;4.440;2022-11-15T05:56:58;100722.22;;;10.67;100.00
69318;BME280;56457;52.190;4.440;2022-11-15T05:57:58;100711.81;;;10.60;100.00
69318;BME280;56457;52.190;4.440;2022-11-15T05:58:59;100720.53;;;10.60;100.00
69318;BME280;56457;52.190;4.440;2022-11-15T06:00:00;100717.94;;;10.59;100.00
69318;BME280;56457;52.190;4.440;2022-11-15T06:01:01;100717.06;;;10.60;100.00
69318;BME280;56457;52.190;4.440;2022-11-15T06:02:01;100718.84;;;10.56;100.00
69318;BME280;56457;52.190;4.440;2022-11-15T06:03:01;100722.41;;;10.50;100.00
69318;BME280;56457;52.190;4.440;2022-11-15T06:04:02;100719.78;;;10.47;100.00
69318;BME280;56457;52.190;4.440;2022-11-15T06:05:02;100725.94;;;10.45;100.00
69318;BME280;56457;52.190;4.440;2022-11-15T06:06:03;100722.44;;;10.46;100.00
69318;BME280;56457;52.190;4.440;2022-11-15T06:07:03;100721.59;;;10.41;100.00
69318;BME280;56457;52.190;4.440;2022-11-15T06:08:04;100716.41;;;10.38;100.00
69318;BME280;56457;52.190;4.440;2022-11-15T06:09:04;100724.25;;;10.39;100.00
69318;BME280;56457;52.190;4.440;2022-11-15T06:10:04;100725.13;;;10.37;100.00
69318;BME280;56457;52.190;4.440;2022-11-15T06:11:05;100729.50;;;10.39;100.00
69318;BME280;56457;52.190;4.440;2022-11-15T06:12:06;100734.78;;;10.33;100.00
69318;BME280;56457;52.190;4.440;2022-11-15T06:13:06;100740.91;;;10.34;100.00
69318;BME280;56457;52.190;4.440;2022-11-15T06:14:07;100732.16;;;10.33;100.00
69318;BME280;56457;52.190;4.440;2022-11-15T06:15:07;100728.69;;;10.30;100.00
69318;BME280;56457;52.190;4.440;2022-11-15T06:16:07;100734.81;;;10.29;100.00
69318;BME280;56457;52.190;4.440;2022-11-15T06:17:08;100729.59;;;10.27;100.00
69318;BME280;56457;52.190;4.440;2022-11-15T06:18:08;100736.56;;;10.30;100.00